createdAt,value
2023-02-04T00:00:17.440Z,102046.91
2023-02-04T00:02:45.224Z,102051.41
2023-02-04T00:05:13.810Z,102049.44
2023-02-04T00:07:41.615Z,102052.50
2023-02-04T00:10:10.236Z,102065.25
2023-02-04T00:12:39.885Z,102062.84
2023-02-04T00:15:10.724Z,102062.00
2023-02-04T00:17:39.357Z,102070.09
2023-02-04T00:20:07.666Z,102063.41
2023-02-04T00:22:35.303Z,102070.69
2023-02-04T00:25:04.502Z,102067.44
2023-02-04T00:27:32.070Z,102069.28
2023-02-04T00:29:59.893Z,102069.53
2023-02-04T00:32:31.517Z,102075.94
2023-02-04T00:34:59.055Z,102070.66
2023-02-04T00:37:26.703Z,102073.84
2023-02-04T00:39:54.316Z,102074.38
2023-02-04T00:42:22.009Z,102079.56
2023-02-04T00:44:49.755Z,102080.16
2023-02-04T00:47:17.478Z,102078.88
2023-02-04T00:49:46.673Z,102077.88
2023-02-04T00:52:14.271Z,102079.94
2023-02-04T00:54:41.884Z,102077.34
2023-02-04T00:57:09.490Z,102082.19
2023-02-04T00:59:37.209Z,102081.75
2023-02-04T01:02:04.744Z,102070.06
2023-02-04T01:04:32.199Z,102068.75
2023-02-04T01:07:01.074Z,102082.88
2023-02-04T01:09:28.648Z,102086.09
2023-02-04T01:11:56.137Z,102093.31
2023-02-04T01:14:23.668Z,102097.69
2023-02-04T01:16:51.198Z,102100.06
2023-02-04T01:19:18.995Z,102108.81
2023-02-04T01:21:46.453Z,102100.31
2023-02-04T01:24:15.334Z,102099.97
2023-02-04T01:26:42.836Z,102100.44
2023-02-04T01:29:10.502Z,102116.72
2023-02-04T01:31:38.010Z,102113.50
2023-02-04T01:34:05.540Z,102121.94
2023-02-04T01:36:33.020Z,102134.81
2023-02-04T01:39:00.971Z,102131.69
2023-02-04T01:41:29.806Z,102123.47
2023-02-04T01:43:57.290Z,102128.91
2023-02-04T01:46:25.228Z,102118.88
2023-02-04T01:48:52.768Z,102116.00
2023-02-04T01:51:26.941Z,102125.47
2023-02-04T01:53:55.338Z,102133.50
2023-02-04T01:56:26.358Z,102137.63
2023-02-04T01:58:56.311Z,102138.09
2023-02-04T02:01:38.118Z,102143.47
2023-02-04T02:04:06.515Z,102148.97
2023-02-04T02:06:34.180Z,102134.03
2023-02-04T02:09:02.403Z,102148.97
2023-02-04T02:11:29.978Z,102148.50
2023-02-04T02:13:58.825Z,102147.81
2023-02-04T02:16:26.386Z,102155.91
2023-02-04T02:18:54.481Z,102162.38
2023-02-04T02:21:25.631Z,102162.94
2023-02-04T02:23:57.129Z,102161.09
2023-02-04T02:26:25.149Z,102158.22
2023-02-04T02:28:52.946Z,102168.06
2023-02-04T02:31:22.467Z,102164.31
2023-02-04T02:33:50.240Z,102160.56
2023-02-04T02:36:18.280Z,102172.84
2023-02-04T02:38:45.893Z,102166.44
2023-02-04T02:41:17.672Z,102180.69
2023-02-04T02:43:45.208Z,102180.59
2023-02-04T02:46:12.761Z,102187.34
2023-02-04T02:48:40.264Z,102188.38
2023-02-04T02:51:07.867Z,102180.59
2023-02-04T02:53:35.828Z,102187.63
2023-02-04T02:56:04.682Z,102189.69
2023-02-04T02:58:34.623Z,102193.34
2023-02-04T03:01:03.839Z,102198.50
2023-02-04T03:03:33.064Z,102203.22
2023-02-04T03:06:02.795Z,102207.31
2023-02-04T03:08:30.287Z,102206.41
2023-02-04T03:10:57.733Z,102216.31
2023-02-04T03:13:25.373Z,102216.00
2023-02-04T03:15:55.195Z,102216.25
2023-02-04T03:18:22.855Z,102216.50
2023-02-04T03:20:52.342Z,102225.75
2023-02-04T03:23:20.324Z,102235.44
2023-02-04T03:25:47.982Z,102232.94
2023-02-04T03:28:15.652Z,102242.00
2023-02-04T03:30:43.307Z,102244.16
2023-02-04T03:33:12.185Z,102243.06
2023-02-04T03:35:39.673Z,102252.59
2023-02-04T03:38:07.128Z,102257.06
2023-02-04T03:40:34.607Z,102250.16
2023-02-04T03:43:02.057Z,102251.16
2023-02-04T03:45:37.472Z,102260.44
2023-02-04T03:48:12.720Z,102267.03
2023-02-04T03:50:40.187Z,102257.28
2023-02-04T03:53:07.766Z,102264.94
2023-02-04T03:55:35.933Z,102265.44
2023-02-04T03:58:03.855Z,102261.84
2023-02-04T04:00:32.367Z,102268.84
2023-02-04T04:03:00.129Z,102267.03
2023-02-04T04:05:29.099Z,102256.81
2023-02-04T04:07:56.633Z,102267.66
2023-02-04T04:10:24.136Z,102275.41
2023-02-04T04:12:51.689Z,102270.94
2023-02-04T04:15:19.327Z,102288.13
2023-02-04T04:17:46.828Z,102280.53
2023-02-04T04:20:14.333Z,102282.69
2023-02-04T04:22:43.284Z,102288.63
2023-02-04T04:25:10.782Z,102291.25
2023-02-04T04:27:38.316Z,102291.69
2023-02-04T04:30:06.307Z,102286.34
2023-02-04T04:32:33.785Z,102286.22
2023-02-04T04:35:01.345Z,102281.28
2023-02-04T04:37:28.799Z,102288.16
2023-02-04T04:39:57.614Z,102287.19
2023-02-04T04:42:25.073Z,102288.75
2023-02-04T04:44:52.534Z,102277.28
2023-02-04T04:47:20.022Z,102274.69
2023-02-04T04:49:47.482Z,102272.25
2023-02-04T04:52:14.935Z,102274.78
2023-02-04T04:54:42.434Z,102274.81
2023-02-04T04:57:11.244Z,102274.56
2023-02-04T04:59:38.727Z,102282.63
2023-02-04T05:02:06.166Z,102288.78
2023-02-04T05:04:33.881Z,102292.53
2023-02-04T05:07:01.322Z,102288.28
2023-02-04T05:09:28.820Z,102292.41
2023-02-04T05:11:56.335Z,102299.88
2023-02-04T05:14:25.325Z,102307.69
2023-02-04T05:16:52.789Z,102314.06
2023-02-04T05:19:20.279Z,102309.00
2023-02-04T05:21:47.736Z,102309.16
2023-02-04T05:24:15.296Z,102309.16
2023-02-04T05:26:42.780Z,102317.22
2023-02-04T05:29:10.774Z,102318.56
2023-02-04T05:31:39.715Z,102316.13
2023-02-04T05:34:07.265Z,102317.47
2023-02-04T05:36:34.907Z,102332.63
2023-02-04T05:39:02.452Z,102334.44
2023-02-04T05:41:29.931Z,102339.13
2023-02-04T05:43:57.437Z,102337.31
2023-02-04T05:46:25.058Z,102339.72
2023-02-04T05:48:53.957Z,102336.09
2023-02-04T05:51:21.486Z,102333.22
2023-02-04T05:53:49.547Z,102328.91
2023-02-04T05:56:17.076Z,102332.63
2023-02-04T05:58:44.554Z,102342.59
2023-02-04T06:01:12.057Z,102350.34
2023-02-04T06:03:39.600Z,102356.22
2023-02-04T06:06:08.692Z,102354.19
2023-02-04T06:08:36.194Z,102347.94
2023-02-04T06:11:03.699Z,102356.94
2023-02-04T06:13:31.193Z,102364.38
2023-02-04T06:15:58.666Z,102368.88
2023-02-04T06:18:26.109Z,102366.44
2023-02-04T06:20:53.819Z,102368.47
2023-02-04T06:23:22.617Z,102370.31
2023-02-04T06:25:50.299Z,102371.84
2023-02-04T06:28:17.814Z,102364.28
2023-02-04T06:30:45.411Z,102375.94
2023-02-04T06:33:12.935Z,102364.88
2023-02-04T06:35:40.392Z,102369.56
2023-02-04T06:38:07.839Z,102368.75
2023-02-04T06:40:36.652Z,102378.00
2023-02-04T06:43:04.613Z,102373.06
2023-02-04T06:45:32.138Z,102384.41
2023-02-04T06:47:59.629Z,102385.28
2023-02-04T06:50:28.106Z,102386.19
2023-02-04T06:52:55.557Z,102389.84
2023-02-04T06:55:23.039Z,102389.38
2023-02-04T06:57:51.922Z,102394.41
2023-02-04T07:00:19.910Z,102392.13
2023-02-04T07:02:47.419Z,102399.13
2023-02-04T07:05:14.873Z,102404.06
2023-02-04T07:07:42.332Z,102401.38
2023-02-04T07:10:10.655Z,102410.88
2023-02-04T07:12:38.122Z,102422.06
2023-02-04T07:15:07.773Z,102431.63
2023-02-04T07:17:35.225Z,102436.75
2023-02-04T07:20:02.703Z,102439.31
2023-02-04T07:22:30.219Z,102437.31
2023-02-04T07:24:58.707Z,102451.50
2023-02-04T07:27:26.190Z,102458.69
2023-02-04T07:29:53.706Z,102450.78
2023-02-04T07:32:22.503Z,102454.00
2023-02-04T07:34:49.972Z,102445.66
2023-02-04T07:37:17.485Z,102443.69
2023-02-04T07:39:44.975Z,102453.31
2023-02-04T07:42:12.436Z,102449.63
2023-02-04T07:44:39.934Z,102458.44
2023-02-04T07:47:07.586Z,102463.63
2023-02-04T07:49:36.585Z,102469.47
2023-02-04T07:52:04.189Z,102478.25
2023-02-04T07:54:31.807Z,102474.41
2023-02-04T07:56:59.309Z,102482.59
2023-02-04T07:59:26.932Z,102492.34
2023-02-04T08:01:54.645Z,102498.78
2023-02-04T08:04:22.218Z,102489.88
2023-02-04T08:06:51.285Z,102485.41
2023-02-04T08:09:18.994Z,102497.81
2023-02-04T08:11:46.528Z,102500.69
2023-02-04T08:14:14.310Z,102503.63
2023-02-04T08:16:42.273Z,102501.44
2023-02-04T08:19:10.045Z,102499.50
2023-02-04T08:21:37.580Z,102505.03
2023-02-04T08:24:06.982Z,102510.81
2023-02-04T08:26:34.674Z,102523.25
2023-02-04T08:29:02.312Z,102517.31
2023-02-04T08:31:30.024Z,102522.88
2023-02-04T08:33:57.694Z,102528.69
2023-02-04T08:36:25.372Z,102528.88
2023-02-04T08:38:52.949Z,102523.50
2023-02-04T08:41:22.010Z,102528.69
2023-02-04T08:43:49.908Z,102538.56
2023-02-04T08:46:17.651Z,102540.09
2023-02-04T08:48:45.311Z,102533.00
2023-02-04T08:51:12.988Z,102544.63
2023-02-04T08:53:41.275Z,102546.41
2023-02-04T08:56:09.245Z,102541.47
2023-02-04T08:58:39.617Z,102548.38
2023-02-04T09:01:07.295Z,102561.03
2023-02-04T09:03:35.241Z,102547.63
2023-02-04T09:06:02.918Z,102563.09
2023-02-04T09:08:30.538Z,102553.06
2023-02-04T09:10:58.020Z,102560.00
2023-02-04T09:13:27.139Z,102560.25
2023-02-04T09:15:55.948Z,102565.44
2023-02-04T09:18:25.147Z,102562.66
2023-02-04T09:20:53.498Z,102563.72
2023-02-04T09:23:21.299Z,102568.91
2023-02-04T09:25:49.514Z,102572.53
2023-02-04T09:28:17.124Z,102572.28
2023-02-04T09:30:46.250Z,102567.97
2023-02-04T09:33:16.710Z,102577.16
2023-02-04T09:35:44.281Z,102567.72
2023-02-04T09:38:11.813Z,102573.53
2023-02-04T09:40:48.826Z,102593.09
2023-02-04T09:43:19.911Z,102589.59
2023-02-04T09:45:49.350Z,102590.19
2023-02-04T09:48:18.446Z,102592.63
2023-02-04T09:50:46.334Z,102599.63
2023-02-04T09:53:15.893Z,102603.72
2023-02-04T09:55:46.069Z,102604.19
2023-02-04T09:58:16.345Z,102605.03
2023-02-04T10:00:44.623Z,102610.56
2023-02-04T10:03:15.883Z,102617.94
2023-02-04T10:05:45.280Z,102621.19
2023-02-04T10:08:15.468Z,102630.03
2023-02-04T10:10:43.174Z,102621.56
2023-02-04T10:13:15.853Z,102627.72
2023-02-04T10:15:43.336Z,102638.81
2023-02-04T10:18:12.641Z,102637.38
2023-02-04T10:20:40.117Z,102647.75
2023-02-04T10:23:12.784Z,102642.56
2023-02-04T10:25:40.346Z,102642.44
2023-02-04T10:28:07.832Z,102635.66
2023-02-04T10:30:41.206Z,102637.75
2023-02-04T10:33:16.481Z,102635.78
2023-02-04T10:35:48.203Z,102642.09
2023-02-04T10:38:17.205Z,102647.16
2023-02-04T10:40:46.054Z,102647.63
2023-02-04T10:43:16.722Z,102647.75
2023-02-04T10:45:47.669Z,102649.59
2023-02-04T10:48:17.384Z,102648.75
2023-02-04T10:50:45.307Z,102658.59
2023-02-04T10:53:30.602Z,102654.41
2023-02-04T10:55:59.669Z,102656.44
2023-02-04T10:58:29.260Z,102651.25
2023-02-04T11:00:57.069Z,102656.81
2023-02-04T11:03:26.283Z,102655.13
2023-02-04T11:05:54.456Z,102649.09
2023-02-04T11:08:24.029Z,102650.28
2023-02-04T11:10:52.758Z,102637.50
2023-02-04T11:13:26.381Z,102649.34
2023-02-04T11:16:10.806Z,102647.63
2023-02-04T11:18:47.464Z,102655.59
2023-02-04T11:21:16.138Z,102639.06
2023-02-04T11:23:43.631Z,102640.66
2023-02-04T11:26:14.154Z,102647.63
2023-02-04T11:28:52.174Z,102652.47
2023-02-04T11:31:40.692Z,102649.59
2023-02-04T11:34:12.191Z,102647.66
2023-02-04T11:36:52.403Z,102644.50
2023-02-04T11:39:20.294Z,102644.84
2023-02-04T11:41:48.106Z,102651.03
2023-02-04T11:44:17.491Z,102658.63
2023-02-04T11:46:45.158Z,102661.03
2023-02-04T11:49:18.535Z,102660.44
2023-02-04T11:51:46.603Z,102655.25
2023-02-04T11:54:16.309Z,102652.56
2023-02-04T11:56:43.959Z,102654.97
2023-02-04T11:59:12.930Z,102652.31
2023-02-04T12:01:42.232Z,102653.13
2023-02-04T12:04:24.038Z,102655.25
2023-02-04T12:06:59.723Z,102658.66
2023-02-04T12:09:29.812Z,102658.69
2023-02-04T12:11:58.894Z,102662.75
2023-02-04T12:14:30.329Z,102666.06
2023-02-04T12:16:59.190Z,102666.34
2023-02-04T12:19:27.760Z,102664.59
2023-02-04T12:21:55.752Z,102664.38
2023-02-04T12:24:23.234Z,102655.19
2023-02-04T12:26:51.635Z,102659.84
2023-02-04T12:29:19.138Z,102655.94
2023-02-04T12:31:46.862Z,102659.28
2023-02-04T12:34:17.257Z,102658.47
2023-02-04T12:36:44.884Z,102658.59
2023-02-04T12:39:12.368Z,102658.94
2023-02-04T12:41:39.811Z,102660.97
2023-02-04T12:44:07.265Z,102654.59
2023-02-04T12:46:34.834Z,102656.94
2023-02-04T12:49:02.301Z,102653.47
2023-02-04T12:51:31.115Z,102655.88
2023-02-04T12:53:58.561Z,102662.00
2023-02-04T12:56:26.182Z,102666.34
2023-02-04T12:58:53.699Z,102663.00
2023-02-04T13:01:21.122Z,102660.81
2023-02-04T13:03:48.652Z,102671.41
2023-02-04T13:06:16.137Z,102665.03
2023-02-04T13:08:44.941Z,102664.34
2023-02-04T13:11:12.461Z,102662.69
2023-02-04T13:13:40.523Z,102663.56
2023-02-04T13:16:08.034Z,102664.75
2023-02-04T13:18:35.544Z,102661.06
2023-02-04T13:21:03.030Z,102659.53
2023-02-04T13:23:30.480Z,102661.75
2023-02-04T13:25:59.283Z,102659.72
2023-02-04T13:28:26.736Z,102654.03
2023-02-04T13:30:54.197Z,102659.13
2023-02-04T13:33:21.715Z,102652.72
2023-02-04T13:35:49.184Z,102661.31
2023-02-04T13:38:16.680Z,102657.78
2023-02-04T13:40:44.159Z,102654.78
2023-02-04T13:43:13.012Z,102659.22
2023-02-04T13:45:47.324Z,102655.25
2023-02-04T13:48:15.497Z,102652.53
2023-02-04T13:50:43.048Z,102654.03
2023-02-04T13:53:10.663Z,102650.69
2023-02-04T13:55:38.159Z,102649.59
2023-02-04T13:58:05.610Z,102653.03
2023-02-04T14:00:34.921Z,102654.81
2023-02-04T14:03:02.682Z,102651.81
2023-02-04T14:05:30.167Z,102655.94
2023-02-04T14:07:57.609Z,102655.31
2023-02-04T14:10:26.729Z,102662.34
2023-02-04T14:12:54.488Z,102662.41
2023-02-04T14:15:21.964Z,102666.22
2023-02-04T14:17:50.813Z,102664.00
2023-02-04T14:20:18.719Z,102672.97
2023-02-04T14:22:46.321Z,102670.78
2023-02-04T14:25:13.802Z,102670.03
2023-02-04T14:27:42.512Z,102674.66
2023-02-04T14:30:17.645Z,102675.03
2023-02-04T14:32:45.127Z,102668.16
2023-02-04T14:35:14.475Z,102667.88
2023-02-04T14:37:42.031Z,102664.44
2023-02-04T14:40:11.337Z,102663.91
2023-02-04T14:42:39.315Z,102660.75
2023-02-04T14:45:08.312Z,102661.75
2023-02-04T14:47:35.855Z,102661.38
2023-02-04T14:50:04.420Z,102677.81
2023-02-04T14:52:33.203Z,102666.19
2023-02-04T14:55:00.781Z,102675.16
2023-02-04T14:57:28.251Z,102678.00
2023-02-04T14:59:55.734Z,102675.81
2023-02-04T15:02:23.287Z,102683.25
2023-02-04T15:04:50.799Z,102680.72
2023-02-04T15:07:18.336Z,102675.50
2023-02-04T15:09:48.228Z,102675.63
2023-02-04T15:12:15.859Z,102668.63
2023-02-04T15:14:43.322Z,102671.78
2023-02-04T15:17:10.789Z,102677.78
2023-02-04T15:19:38.301Z,102670.88
2023-02-04T15:22:05.784Z,102689.59
2023-02-04T15:24:33.233Z,102685.25
2023-02-04T15:27:02.098Z,102687.66
2023-02-04T15:29:30.441Z,102683.66
2023-02-04T15:31:58.013Z,102685.97
2023-02-04T15:34:25.832Z,102691.53
2023-02-04T15:36:53.363Z,102691.41
2023-02-04T15:39:20.808Z,102688.63
2023-02-04T15:41:48.368Z,102691.19
2023-02-04T15:44:17.235Z,102688.88
2023-02-04T15:46:44.714Z,102690.38
2023-02-04T15:49:12.360Z,102690.22
2023-02-04T15:51:39.874Z,102688.81
2023-02-04T15:54:07.326Z,102692.53
2023-02-04T15:56:34.867Z,102705.44
2023-02-04T15:59:02.646Z,102708.47
2023-02-04T16:01:31.685Z,102716.44
2023-02-04T16:04:00.190Z,102718.38
2023-02-04T16:06:27.690Z,102723.34
2023-02-04T16:08:55.139Z,102726.94
2023-02-04T16:11:22.606Z,102725.16
2023-02-04T16:13:50.056Z,102725.38
2023-02-04T16:16:17.582Z,102725.63
2023-02-04T16:18:46.467Z,102723.09
2023-02-04T16:21:13.964Z,102722.00
2023-02-04T16:23:43.322Z,102724.41
2023-02-04T16:26:11.003Z,102727.78
2023-02-04T16:28:38.493Z,102723.69
2023-02-04T16:31:09.518Z,102729.72
2023-02-04T16:33:37.146Z,102730.56
2023-02-04T16:36:10.649Z,102736.72
2023-02-04T16:38:38.799Z,102739.00
2023-02-04T16:41:06.532Z,102743.31
2023-02-04T16:43:34.117Z,102740.97
2023-02-04T16:46:01.722Z,102744.31
2023-02-04T16:48:29.506Z,102745.78
2023-02-04T16:50:58.134Z,102742.03
2023-02-04T16:53:26.918Z,102737.03
2023-02-04T16:55:55.617Z,102747.84
2023-02-04T16:58:23.508Z,102747.00
2023-02-04T17:00:51.223Z,102751.78
2023-02-04T17:03:18.779Z,102745.44
2023-02-04T17:05:46.289Z,102751.69
2023-02-04T17:08:14.995Z,102760.38
2023-02-04T17:11:01.665Z,102771.09
2023-02-04T17:13:29.272Z,102774.41
2023-02-04T17:16:00.522Z,102768.78
2023-02-04T17:18:29.375Z,102766.34
2023-02-04T17:20:57.181Z,102767.22
2023-02-04T17:23:25.139Z,102763.69
2023-02-04T17:25:53.981Z,102769.44
2023-02-04T17:28:21.529Z,102774.16
2023-02-04T17:30:49.119Z,102771.59
2023-02-04T17:33:16.583Z,102767.34
2023-02-04T17:35:44.054Z,102776.28
2023-02-04T17:38:11.523Z,102775.97
2023-02-04T17:40:38.994Z,102781.56
2023-02-04T17:43:08.366Z,102783.19
2023-02-04T17:45:36.270Z,102791.63
2023-02-04T17:48:04.986Z,102787.72
2023-02-04T17:50:34.105Z,102792.38
2023-02-04T17:53:01.545Z,102802.94
2023-02-04T17:55:31.030Z,102798.56
2023-02-04T17:58:00.909Z,102797.69
2023-02-04T18:00:31.718Z,102800.03
2023-02-04T18:02:59.342Z,102799.81
2023-02-04T18:05:28.372Z,102803.31
2023-02-04T18:08:01.119Z,102801.75
2023-02-04T18:10:31.876Z,102797.75
2023-02-04T18:13:00.286Z,102794.78
2023-02-04T18:15:32.218Z,102798.16
2023-02-04T18:18:11.573Z,102790.34
2023-02-04T18:20:39.110Z,102797.78
2023-02-04T18:23:13.635Z,102800.63
2023-02-04T18:25:41.131Z,102805.81
2023-02-04T18:28:15.340Z,102801.47
2023-02-04T18:30:44.337Z,102807.28
2023-02-04T18:33:20.635Z,102804.31
2023-02-04T18:35:50.300Z,102803.69
2023-02-04T18:38:28.325Z,102808.97
2023-02-04T18:41:03.430Z,102810.78
2023-02-04T18:43:34.938Z,102811.09
2023-02-04T18:46:16.761Z,102804.28
2023-02-04T18:49:00.952Z,102808.63
2023-02-04T18:51:31.529Z,102800.13
2023-02-04T18:54:19.523Z,102802.53
2023-02-04T18:56:47.171Z,102800.84
2023-02-04T18:59:18.120Z,102798.53
2023-02-04T19:01:48.233Z,102801.78
2023-02-04T19:04:21.472Z,102807.19
2023-02-04T19:06:49.956Z,102810.03
2023-02-04T19:09:23.232Z,102802.50
2023-02-04T19:11:52.865Z,102797.44
2023-02-04T19:14:33.284Z,102800.94
2023-02-04T19:17:22.498Z,102800.94
2023-02-04T19:19:57.329Z,102801.34
2023-02-04T19:22:33.799Z,102798.56
2023-02-04T19:25:20.685Z,102804.50
2023-02-04T19:27:54.005Z,102795.63
2023-02-04T19:30:42.057Z,102797.63
2023-02-04T19:33:16.812Z,102795.00
2023-02-04T19:35:46.134Z,102797.22
2023-02-04T19:38:30.633Z,102801.56
2023-02-04T19:40:58.339Z,102803.03
2023-02-04T19:43:34.828Z,102799.84
2023-02-04T19:46:03.660Z,102808.13
2023-02-04T19:48:37.826Z,102806.75
2023-02-04T19:51:20.069Z,102811.19
2023-02-04T19:53:52.789Z,102813.88
2023-02-04T19:56:33.353Z,102817.69
2023-02-04T19:59:18.654Z,102815.13
2023-02-04T20:01:46.267Z,102815.34
2023-02-04T20:04:19.357Z,102812.06
2023-02-04T20:06:58.696Z,102812.81
2023-02-04T20:09:30.355Z,102823.41
2023-02-04T20:12:05.727Z,102818.97
2023-02-04T20:14:52.442Z,102821.81
2023-02-04T20:17:26.484Z,102824.03
2023-02-04T20:19:56.202Z,102826.78
2023-02-04T20:22:48.591Z,102825.84
2023-02-04T20:25:45.053Z,102832.06
2023-02-04T20:28:39.818Z,102845.09
2023-02-04T20:31:24.815Z,102838.28
2023-02-04T20:33:54.108Z,102845.16
2023-02-04T20:36:36.060Z,102850.81
2023-02-04T20:39:32.267Z,102854.31
2023-02-04T20:42:23.717Z,102851.03
2023-02-04T20:44:53.496Z,102849.03
2023-02-04T20:47:28.788Z,102854.53
2023-02-04T20:50:00.204Z,102846.69
2023-02-04T20:53:03.085Z,102845.53
2023-02-04T20:55:35.735Z,102842.56
2023-02-04T20:58:15.194Z,102841.28
2023-02-04T21:00:47.851Z,102839.88
2023-02-04T21:03:36.891Z,102841.69
2023-02-04T21:06:18.534Z,102837.78
2023-02-04T21:08:49.363Z,102841.06
2023-02-04T21:11:17.343Z,102845.97
2023-02-04T21:13:46.727Z,102847.09
2023-02-04T21:16:22.636Z,102845.41
2023-02-04T21:18:50.673Z,102844.13
2023-02-04T21:21:20.188Z,102850.16
2023-02-04T21:23:49.146Z,102850.06
2023-02-04T21:26:16.730Z,102844.84
2023-02-04T21:28:44.480Z,102845.16
2023-02-04T21:31:12.514Z,102846.44
2023-02-04T21:33:40.181Z,102848.16
2023-02-04T21:36:08.876Z,102852.59
2023-02-04T21:38:37.209Z,102851.09
2023-02-04T21:41:06.500Z,102854.25
2023-02-04T21:43:34.040Z,102852.63
2023-02-04T21:46:02.182Z,102862.59
2023-02-04T21:48:29.868Z,102852.13
2023-02-04T21:50:57.538Z,102848.63
2023-02-04T21:53:25.155Z,102848.72
2023-02-04T21:55:52.791Z,102852.81
2023-02-04T21:58:22.889Z,102851.25
2023-02-04T22:00:50.756Z,102858.91
2023-02-04T22:03:18.434Z,102853.78
2023-02-04T22:05:46.039Z,102855.88
2023-02-04T22:08:13.907Z,102852.88
2023-02-04T22:10:44.069Z,102854.91
2023-02-04T22:13:29.416Z,102845.13
2023-02-04T22:15:59.258Z,102852.31
2023-02-04T22:18:41.682Z,102849.28
2023-02-04T22:21:10.995Z,102856.06
2023-02-04T22:23:39.737Z,102848.94
2023-02-04T22:26:08.508Z,102841.97
2023-02-04T22:28:36.306Z,102840.56
2023-02-04T22:31:05.324Z,102838.59
2023-02-04T22:33:33.122Z,102844.47
2023-02-04T22:36:00.739Z,102845.84
2023-02-04T22:38:31.409Z,102848.56
2023-02-04T22:40:59.016Z,102846.00
2023-02-04T22:43:26.765Z,102852.59
2023-02-04T22:45:54.505Z,102852.91
2023-02-04T22:48:23.555Z,102849.19
2023-02-04T22:50:51.169Z,102855.81
2023-02-04T22:53:20.446Z,102858.06
2023-02-04T22:55:48.048Z,102851.81
2023-02-04T22:58:15.886Z,102845.94
2023-02-04T23:00:47.052Z,102848.25
2023-02-04T23:03:14.752Z,102852.97
2023-02-04T23:05:45.189Z,102842.03
2023-02-04T23:08:17.879Z,102834.03
2023-02-04T23:10:45.568Z,102838.84
2023-02-04T23:13:13.492Z,102837.13
2023-02-04T23:15:41.119Z,102842.78
2023-02-04T23:18:08.761Z,102837.91
2023-02-04T23:20:36.632Z,102845.41
2023-02-04T23:23:05.682Z,102846.25
2023-02-04T23:25:35.061Z,102842.88
2023-02-04T23:28:02.925Z,102842.19
2023-02-04T23:30:32.863Z,102842.09
2023-02-04T23:33:00.503Z,102847.28
2023-02-04T23:35:28.239Z,102843.06
2023-02-04T23:37:55.923Z,102840.13
2023-02-04T23:40:25.188Z,102839.28
2023-02-04T23:42:52.808Z,102840.72
2023-02-04T23:45:21.546Z,102848.56
2023-02-04T23:47:49.220Z,102837.41
2023-02-04T23:50:17.580Z,102834.75
2023-02-04T23:52:45.256Z,102836.28
2023-02-04T23:55:12.775Z,102838.84
2023-02-04T23:57:41.978Z,102848.09
